Terminal Aerodrome Forecast
Issued by NWS Omaha/Valley, NE

Home | Current Version | Previous Version | Text Only | Print | Product List | Glossary Off
Versions: 1 2 3 4 5 6 7 8 9 10 11 12 13 14 15 16 17 18 19 20 21

000
FTUS43 KOAX 172132 AAA
TAFOFK
TAF AMD
KOFK 172132Z 1722/1818 36012KT P6SM SCT080
     FM180200 36013G21KT P6SM VCSH BKN040
     FM180600 35013G21KT 5SM -RA BR OVC025
      TEMPO 1809/1812 4SM -RASN SCT015 OVC025
     FM181200 33015KT P6SM OVC040=

USA.gov is the U.S. government's official web portal to all federal, state and local government web resources and services.